CYTZ/YTZ METAR and TAF weather

Enter ICAO airport designator
Station Type Date Time Source
CYTZ METAR 2017/06/26 00:00 UTC NOAA

CYTZ 260000Z AUTO 27014G20KT 9SM CLR 20/09 A2994 RMK SLP140 DENSITY ALT 800FT


Station Type Date Time Source
CYTZ Decoded METAR 2017/06/26 00:00 UTC NOAA

Toronto Island Airport Automated Reporting Station, Canada (CYTZ) 43-38N 079-24W
Jun 25, 2017 - 08:00 PM EDT / 2017.06.26 0000 UTC
Wind: from the W (270 degrees) at 16 MPH (14 KT) gusting to 23 MPH (20 KT):0
Visibility: 9 mile(s):0
Sky conditions: clear
Temperature: 68 F (20 C)
Dew Point: 48 F (9 C)
Relative Humidity: 49%
Pressure (altimeter): 29.94 in. Hg (1013 hPa)
ob: CYTZ 260000Z AUTO 27014G20KT 9SM CLR 20/09 A2994 RMK SLP140 DENSITY ALT 800FT
cycle: 0

Station Type Date Time Source
CYTZ TAF 2017/06/25 20:51 UTC NOAA

TAF CYTZ 251947Z 2520/2620 25012KT P6SM SCT060
TEMPO 2520/2602 P6SM -SHRA BKN060 PROB30 2520/2521 VRB15G30KT 3SM TSRA BKN040CB
FM260200 27005KT P6SM FEW060
FM261200 19005KT P6SM BKN025
FM261600 27012G22KT P6SM BKN050
TEMPO 2616/2620 P6SM -SHRA PROB30 2616/2620 2SM TSRA BR BKN050CB
RMK FCST BASED ON AUTO OBS. NXT FCST BY 260200Z


Example: see airport list